createdAt,value
2024-02-28T00:02:00.112Z,62.29
2024-02-28T00:04:48.246Z,62.94
2024-02-28T00:07:35.847Z,62.78
2024-02-28T00:10:22.745Z,62.45
2024-02-28T00:13:09.579Z,62.46
2024-02-28T00:15:56.463Z,62.72
2024-02-28T00:18:43.474Z,62.88
2024-02-28T00:21:30.382Z,62.22
2024-02-28T00:24:17.489Z,62.56
2024-02-28T00:27:04.378Z,62.76
2024-02-28T00:29:51.550Z,62.14
2024-02-28T00:32:38.441Z,62.12
2024-02-28T00:35:25.396Z,62.60
2024-02-28T00:38:12.238Z,62.89
2024-02-28T00:40:59.089Z,62.02
2024-02-28T00:43:45.932Z,62.83
2024-02-28T00:46:32.778Z,62.19
2024-02-28T00:49:19.647Z,62.29
2024-02-28T00:52:06.675Z,62.19
2024-02-28T00:54:53.575Z,62.52
2024-02-28T00:57:40.556Z,62.63
2024-02-28T01:00:27.481Z,61.95
2024-02-28T01:03:15.870Z,62.71
2024-02-28T01:06:04.910Z,62.49
2024-02-28T01:08:51.762Z,62.17
2024-02-28T01:11:38.676Z,62.41
2024-02-28T01:14:25.822Z,62.52
2024-02-28T01:17:12.662Z,62.50
2024-02-28T01:19:59.563Z,62.43
2024-02-28T01:22:46.501Z,62.12
2024-02-28T01:25:33.348Z,62.63
2024-02-28T01:28:20.361Z,62.46
2024-02-28T01:31:07.261Z,62.02
2024-02-28T01:33:54.145Z,62.55
2024-02-28T01:36:41.077Z,62.16
2024-02-28T01:39:27.910Z,62.07
2024-02-28T01:42:17.781Z,62.71
2024-02-28T01:45:05.068Z,62.38
2024-02-28T01:47:51.925Z,62.29
2024-02-28T01:50:39.750Z,61.90
2024-02-28T01:53:26.969Z,61.96
2024-02-28T01:56:15.905Z,62.02
2024-02-28T01:59:02.944Z,62.42
2024-02-28T02:01:49.812Z,62.05
2024-02-28T02:04:36.709Z,62.07
2024-02-28T02:07:23.540Z,61.91
2024-02-28T02:10:13.534Z,62.10
2024-02-28T02:13:07.153Z,62.32
2024-02-28T02:15:54.136Z,62.14
2024-02-28T02:18:41.254Z,62.44
2024-02-28T02:21:32.620Z,62.51
2024-02-28T02:24:19.578Z,62.08
2024-02-28T02:27:06.554Z,62.20
2024-02-28T02:29:53.407Z,62.15
2024-02-28T02:32:40.336Z,62.53
2024-02-28T02:35:27.164Z,62.13
2024-02-28T02:38:14.051Z,62.29
2024-02-28T02:41:00.895Z,61.97
2024-02-28T02:43:47.742Z,62.69
2024-02-28T02:46:34.609Z,62.23
2024-02-28T02:49:21.426Z,62.15
2024-02-28T02:52:08.587Z,62.30
2024-02-28T02:54:55.573Z,61.96
2024-02-28T02:57:42.502Z,62.21
2024-02-28T03:00:29.977Z,62.35
2024-02-28T03:03:16.841Z,62.41
2024-02-28T03:06:03.891Z,62.05
2024-02-28T03:08:50.724Z,62.07
2024-02-28T03:11:37.681Z,62.25
2024-02-28T03:14:26.316Z,62.06
2024-02-28T03:17:13.227Z,62.25
2024-02-28T03:20:00.065Z,62.05
2024-02-28T03:22:46.927Z,62.49
2024-02-28T03:25:34.949Z,62.48
2024-02-28T03:28:21.875Z,62.12
2024-02-28T03:31:08.682Z,62.16
2024-02-28T03:33:55.870Z,62.32
2024-02-28T03:36:42.849Z,62.52
2024-02-28T03:39:29.754Z,62.12
2024-02-28T03:42:16.665Z,62.28
2024-02-28T03:45:03.873Z,62.20
2024-02-28T03:47:50.773Z,62.26
2024-02-28T03:50:38.583Z,62.33
2024-02-28T03:53:25.825Z,62.38
2024-02-28T03:56:12.876Z,62.50
2024-02-28T03:58:59.796Z,62.24
2024-02-28T04:01:46.939Z,62.54
2024-02-28T04:04:33.846Z,62.68
2024-02-28T04:07:20.702Z,62.42
2024-02-28T04:10:08.157Z,61.96
2024-02-28T04:12:55.066Z,62.59
2024-02-28T04:15:42.690Z,62.52
2024-02-28T04:18:29.615Z,62.52
2024-02-28T04:21:16.521Z,62.32
2024-02-28T04:24:04.093Z,62.56
2024-02-28T04:26:54.444Z,62.64
2024-02-28T04:29:41.341Z,62.59
2024-02-28T04:32:28.266Z,62.47
2024-02-28T04:35:19.570Z,62.54
2024-02-28T04:38:06.526Z,62.27
2024-02-28T04:40:53.352Z,62.98
2024-02-28T04:43:41.027Z,62.66
2024-02-28T04:46:27.876Z,62.94
2024-02-28T04:49:14.791Z,62.42
2024-02-28T04:52:01.675Z,62.53
2024-02-28T04:54:48.758Z,62.49
2024-02-28T04:57:35.686Z,62.62
2024-02-28T05:00:22.616Z,62.71
2024-02-28T05:03:09.850Z,63.00
2024-02-28T05:05:56.673Z,62.68
2024-02-28T05:08:43.565Z,62.60
2024-02-28T05:11:30.423Z,62.75
2024-02-28T05:14:17.432Z,62.71
2024-02-28T05:17:04.618Z,62.85
2024-02-28T05:19:51.465Z,62.57
2024-02-28T05:22:38.353Z,62.76
2024-02-28T05:25:25.194Z,62.75
2024-02-28T05:28:12.028Z,62.97
2024-02-28T05:30:58.884Z,62.75
2024-02-28T05:33:45.761Z,62.80
2024-02-28T05:36:32.814Z,62.92
2024-02-28T05:39:19.765Z,62.74
2024-02-28T05:42:06.672Z,62.96
2024-02-28T05:44:53.526Z,62.94
2024-02-28T05:47:40.465Z,62.93
2024-02-28T05:50:27.865Z,62.52
2024-02-28T05:53:14.788Z,62.76
2024-02-28T05:56:01.663Z,62.64
2024-02-28T05:58:49.265Z,62.72
2024-02-28T06:01:36.257Z,62.69
2024-02-28T06:04:23.091Z,62.77
2024-02-28T06:07:09.905Z,62.63
2024-02-28T06:09:56.776Z,62.58
2024-02-28T06:12:43.595Z,62.71
2024-02-28T06:15:30.470Z,62.60
2024-02-28T06:18:17.451Z,62.97
2024-02-28T06:21:04.551Z,62.58
2024-02-28T06:23:51.463Z,62.85
2024-02-28T06:26:38.307Z,63.09
2024-02-28T06:29:25.136Z,63.11
2024-02-28T06:32:11.945Z,62.99
2024-02-28T06:34:58.756Z,62.66
2024-02-28T06:37:51.199Z,62.79
2024-02-28T06:40:38.343Z,62.38
2024-02-28T06:43:25.294Z,62.25
2024-02-28T06:46:12.229Z,62.31
2024-02-28T06:48:59.141Z,62.09
2024-02-28T06:51:46.455Z,62.30
2024-02-28T06:54:33.714Z,62.40
2024-02-28T06:57:20.884Z,62.05
2024-02-28T07:00:10.153Z,62.37
2024-02-28T07:02:56.957Z,62.32
2024-02-28T07:05:43.795Z,62.50
2024-02-28T07:08:30.718Z,62.58
2024-02-28T07:11:17.741Z,62.52
2024-02-28T07:14:04.698Z,62.50
2024-02-28T07:16:53.201Z,62.41
2024-02-28T07:19:40.006Z,62.56
2024-02-28T07:22:26.937Z,62.70
2024-02-28T07:25:14.291Z,62.66
2024-02-28T07:28:01.385Z,62.79
2024-02-28T07:30:49.371Z,62.64
2024-02-28T07:33:36.940Z,62.61
2024-02-28T07:36:23.994Z,62.70
2024-02-28T07:39:13.955Z,62.64
2024-02-28T07:42:01.085Z,62.54
2024-02-28T07:44:48.005Z,62.66
2024-02-28T07:47:34.886Z,62.63
2024-02-28T07:50:21.751Z,62.35
2024-02-28T07:53:08.560Z,62.66
2024-02-28T07:55:55.418Z,62.64
2024-02-28T07:58:42.241Z,62.62
2024-02-28T08:01:29.391Z,62.70
2024-02-28T08:04:16.347Z,62.63
2024-02-28T08:07:03.242Z,62.61
2024-02-28T08:09:50.152Z,62.64
2024-02-28T08:12:37.655Z,62.78
2024-02-28T08:15:24.648Z,62.55
2024-02-28T08:18:14.115Z,62.63
2024-02-28T08:21:03.089Z,62.77
2024-02-28T08:23:50.347Z,62.68
2024-02-28T08:26:37.197Z,62.76
2024-02-28T08:29:24.075Z,62.84
2024-02-28T08:32:14.179Z,62.79
2024-02-28T08:35:01.634Z,62.69
2024-02-28T08:37:48.459Z,62.71
2024-02-28T08:40:35.350Z,62.56
2024-02-28T08:43:22.413Z,62.79
2024-02-28T08:46:09.453Z,62.92
2024-02-28T08:48:56.522Z,62.65
2024-02-28T08:51:44.691Z,62.65
2024-02-28T08:54:31.897Z,62.58
2024-02-28T08:57:19.241Z,62.57
2024-02-28T09:00:09.937Z,62.57
2024-02-28T09:02:57.041Z,62.82
2024-02-28T09:05:43.950Z,62.75
2024-02-28T09:08:30.760Z,62.87
2024-02-28T09:11:17.624Z,62.76
2024-02-28T09:14:04.496Z,62.77
2024-02-28T09:16:51.316Z,62.67
2024-02-28T09:19:38.147Z,62.83
2024-02-28T09:22:26.436Z,62.76
2024-02-28T09:25:13.583Z,62.79
2024-02-28T09:28:01.697Z,62.73
2024-02-28T09:30:53.349Z,62.64
2024-02-28T09:33:40.856Z,62.82
2024-02-28T09:36:27.711Z,62.76
2024-02-28T09:39:16.108Z,62.71
2024-02-28T09:42:03.537Z,62.89
2024-02-28T09:44:50.518Z,62.60
2024-02-28T09:47:37.883Z,62.66
2024-02-28T09:50:27.079Z,62.79
2024-02-28T09:53:13.943Z,62.60
2024-02-28T09:56:00.854Z,62.67
2024-02-28T09:58:47.680Z,62.57
2024-02-28T10:01:41.616Z,62.47
2024-02-28T10:04:31.455Z,62.71
2024-02-28T10:07:18.664Z,62.85
2024-02-28T10:10:09.122Z,62.70
2024-02-28T10:12:56.080Z,62.89
2024-02-28T10:15:43.067Z,62.68
2024-02-28T10:18:30.027Z,62.66
2024-02-28T10:21:16.918Z,62.75
2024-02-28T10:24:05.520Z,62.87
2024-02-28T10:26:58.663Z,62.91
2024-02-28T10:29:47.625Z,62.96
2024-02-28T10:32:37.638Z,63.20
2024-02-28T10:35:28.021Z,63.42
2024-02-28T10:38:15.881Z,63.60
2024-02-28T10:41:03.523Z,63.66
2024-02-28T10:43:51.008Z,64.01
2024-02-28T10:46:39.717Z,64.00
2024-02-28T10:49:26.825Z,64.42
2024-02-28T10:52:15.819Z,64.14
2024-02-28T10:55:03.556Z,63.88
2024-02-28T10:57:57.390Z,63.93
2024-02-28T11:00:48.225Z,63.56
2024-02-28T11:03:35.432Z,63.76
2024-02-28T11:06:23.562Z,63.32
2024-02-28T11:09:13.072Z,62.81
2024-02-28T11:12:00.063Z,62.90
2024-02-28T11:14:57.561Z,63.10
2024-02-28T11:17:44.420Z,63.05
2024-02-28T11:20:35.532Z,62.96
2024-02-28T11:23:22.774Z,63.08
2024-02-28T11:26:09.739Z,63.12
2024-02-28T11:28:56.902Z,62.87
2024-02-28T11:31:43.807Z,63.31
2024-02-28T11:34:30.756Z,62.94
2024-02-28T11:37:17.636Z,62.98
2024-02-28T11:40:05.017Z,62.82
2024-02-28T11:42:55.688Z,63.19
2024-02-28T11:45:43.677Z,63.24
2024-02-28T11:48:30.541Z,63.18
2024-02-28T11:51:17.469Z,63.15
2024-02-28T11:54:04.369Z,63.10
2024-02-28T11:56:51.336Z,63.10
2024-02-28T11:59:38.157Z,63.33
2024-02-28T12:02:29.752Z,63.12
2024-02-28T12:05:16.624Z,63.49
2024-02-28T12:08:03.630Z,63.76
2024-02-28T12:10:50.493Z,64.07
2024-02-28T12:13:38.657Z,64.13
2024-02-28T12:16:28.785Z,64.46
2024-02-28T12:19:17.574Z,64.59
2024-02-28T12:22:05.543Z,64.69
2024-02-28T12:24:52.529Z,64.21
2024-02-28T12:27:39.418Z,64.86
2024-02-28T12:30:26.368Z,64.86
2024-02-28T12:33:13.292Z,64.80
2024-02-28T12:36:02.329Z,64.80
2024-02-28T12:38:49.662Z,64.86
2024-02-28T12:41:38.472Z,64.90
2024-02-28T12:44:25.301Z,64.56
2024-02-28T12:47:15.241Z,64.65
2024-02-28T12:50:02.101Z,64.62
2024-02-28T12:52:51.968Z,64.79
2024-02-28T12:55:39.062Z,64.84
2024-02-28T12:58:26.013Z,64.82
2024-02-28T13:01:13.262Z,64.66
2024-02-28T13:04:00.257Z,64.69
2024-02-28T13:06:47.402Z,64.81
2024-02-28T13:09:34.514Z,64.67
2024-02-28T13:12:21.794Z,64.83
2024-02-28T13:15:09.310Z,64.72
2024-02-28T13:17:56.334Z,64.73
2024-02-28T13:20:43.286Z,64.60
2024-02-28T13:23:32.165Z,64.66
2024-02-28T13:26:19.841Z,64.75
2024-02-28T13:29:08.303Z,64.63
2024-02-28T13:31:55.169Z,64.56
2024-02-28T13:34:42.089Z,64.68
2024-02-28T13:37:28.962Z,64.52
2024-02-28T13:40:16.052Z,64.65
2024-02-28T13:43:03.580Z,64.36
2024-02-28T13:45:52.516Z,64.44
2024-02-28T13:48:39.521Z,64.53
2024-02-28T13:51:26.766Z,64.20
2024-02-28T13:54:13.661Z,64.62
2024-02-28T13:57:00.630Z,64.52
2024-02-28T13:59:50.180Z,64.42
2024-02-28T14:02:37.339Z,64.18
2024-02-28T14:05:24.342Z,64.38
2024-02-28T14:08:13.812Z,64.04
2024-02-28T14:11:01.066Z,64.24
2024-02-28T14:13:48.494Z,64.24
2024-02-28T14:16:35.511Z,64.21
2024-02-28T14:19:22.481Z,64.37
2024-02-28T14:22:11.203Z,64.46
2024-02-28T14:24:58.306Z,64.26
2024-02-28T14:27:46.937Z,64.09
2024-02-28T14:30:34.917Z,63.96
2024-02-28T14:33:22.594Z,63.85
2024-02-28T14:36:09.480Z,64.14
2024-02-28T14:38:56.405Z,64.28
2024-02-28T14:41:45.000Z,63.85
2024-02-28T14:44:31.940Z,63.91
2024-02-28T14:47:18.833Z,64.13
2024-02-28T14:50:06.543Z,63.94
2024-02-28T14:52:53.397Z,63.65
2024-02-28T14:55:40.541Z,63.69
2024-02-28T14:58:27.474Z,64.00
2024-02-28T15:01:14.514Z,63.91
2024-02-28T15:04:02.829Z,63.77
2024-02-28T15:06:50.508Z,63.67
2024-02-28T15:09:40.082Z,63.82
2024-02-28T15:12:28.589Z,63.78
2024-02-28T15:15:16.038Z,63.50
2024-02-28T15:18:03.384Z,63.77
2024-02-28T15:20:50.455Z,63.92
2024-02-28T15:23:37.289Z,63.54
2024-02-28T15:26:31.341Z,63.94
2024-02-28T15:29:24.254Z,63.71
2024-02-28T15:32:11.232Z,63.56
2024-02-28T15:34:58.109Z,63.66
2024-02-28T15:37:45.618Z,63.83
2024-02-28T15:40:32.581Z,64.04
2024-02-28T15:43:19.567Z,63.72
2024-02-28T15:46:06.465Z,63.74
2024-02-28T15:48:53.379Z,63.63
2024-02-28T15:51:40.324Z,63.89
2024-02-28T15:54:28.337Z,63.59
2024-02-28T15:57:15.187Z,63.86
2024-02-28T16:00:02.065Z,63.67
2024-02-28T16:02:49.241Z,63.43
2024-02-28T16:05:36.216Z,63.45
2024-02-28T16:08:25.996Z,63.33
2024-02-28T16:11:12.977Z,63.22
2024-02-28T16:14:00.192Z,63.69
2024-02-28T16:16:47.149Z,63.40
2024-02-28T16:19:34.148Z,63.39
2024-02-28T16:22:22.030Z,63.40
2024-02-28T16:25:09.206Z,63.61
2024-02-28T16:27:56.268Z,63.38
2024-02-28T16:30:47.605Z,63.61
2024-02-28T16:33:34.582Z,63.87
2024-02-28T16:36:21.470Z,63.66
2024-02-28T16:39:08.965Z,64.23
2024-02-28T16:41:55.783Z,64.30
2024-02-28T16:44:44.024Z,64.50
2024-02-28T16:47:31.355Z,64.39
2024-02-28T16:50:18.210Z,64.15
2024-02-28T16:53:05.164Z,64.00
2024-02-28T16:55:52.003Z,64.05
2024-02-28T16:58:44.161Z,64.18
2024-02-28T17:01:31.235Z,64.33
2024-02-28T17:04:18.222Z,64.28
2024-02-28T17:07:06.051Z,64.20
2024-02-28T17:09:52.977Z,64.11
2024-02-28T17:12:40.436Z,64.55
2024-02-28T17:15:27.334Z,64.33
2024-02-28T17:18:14.230Z,64.47
2024-02-28T17:21:04.326Z,64.32
2024-02-28T17:23:51.428Z,64.57
2024-02-28T17:26:40.323Z,64.53
2024-02-28T17:29:28.176Z,64.33
2024-02-28T17:32:15.173Z,64.05
2024-02-28T17:35:06.385Z,64.06
2024-02-28T17:37:53.233Z,64.46
2024-02-28T17:40:40.098Z,64.20
2024-02-28T17:43:26.915Z,64.00
2024-02-28T17:46:13.913Z,64.17
2024-02-28T17:49:00.857Z,64.64
2024-02-28T17:51:48.570Z,64.29
2024-02-28T17:54:35.683Z,63.99
2024-02-28T17:57:22.542Z,64.38
2024-02-28T18:00:13.644Z,64.32
2024-02-28T18:03:01.984Z,64.11
2024-02-28T18:05:50.194Z,64.48
2024-02-28T18:08:37.947Z,64.01
2024-02-28T18:11:28.337Z,64.53
2024-02-28T18:14:15.611Z,64.10
2024-02-28T18:17:02.546Z,64.45
2024-02-28T18:19:49.969Z,64.16
2024-02-28T18:22:37.195Z,64.23
2024-02-28T18:25:24.069Z,64.26
2024-02-28T18:28:11.902Z,64.05
2024-02-28T18:30:58.877Z,64.43
2024-02-28T18:33:45.917Z,64.42
2024-02-28T18:36:32.875Z,64.07
2024-02-28T18:39:19.828Z,63.97
2024-02-28T18:42:07.618Z,64.43
2024-02-28T18:44:56.555Z,63.96
2024-02-28T18:47:43.500Z,64.18
2024-02-28T18:50:30.352Z,64.26
2024-02-28T18:53:17.204Z,64.21
2024-02-28T18:56:04.992Z,64.21
2024-02-28T18:58:51.847Z,63.98
2024-02-28T19:01:39.659Z,64.02
2024-02-28T19:04:26.637Z,63.92
2024-02-28T19:07:13.911Z,64.15
2024-02-28T19:10:00.906Z,64.28
2024-02-28T19:12:47.826Z,63.91
2024-02-28T19:15:34.730Z,63.81
2024-02-28T19:18:21.709Z,64.09
2024-02-28T19:21:08.680Z,64.03
2024-02-28T19:23:55.589Z,63.89
2024-02-28T19:26:43.783Z,64.04
2024-02-28T19:29:30.657Z,64.02
2024-02-28T19:32:17.728Z,63.64
2024-02-28T19:35:05.437Z,63.82
2024-02-28T19:37:52.309Z,63.69
2024-02-28T19:40:39.210Z,63.59
2024-02-28T19:43:26.138Z,63.93
2024-02-28T19:46:13.028Z,63.33
2024-02-28T19:48:59.999Z,63.86
2024-02-28T19:51:47.156Z,63.50
2024-02-28T19:54:34.403Z,63.97
2024-02-28T19:57:21.412Z,63.52
2024-02-28T20:00:11.354Z,63.73
2024-02-28T20:02:58.408Z,63.94
2024-02-28T20:05:47.451Z,63.56
2024-02-28T20:08:34.308Z,63.87
2024-02-28T20:11:22.010Z,64.15
2024-02-28T20:14:09.599Z,63.40
2024-02-28T20:16:56.497Z,63.62
2024-02-28T20:19:44.703Z,63.52
2024-02-28T20:22:31.512Z,64.11
2024-02-28T20:25:18.551Z,63.88
2024-02-28T20:28:07.493Z,63.61
2024-02-28T20:30:54.650Z,63.35
2024-02-28T20:33:42.791Z,63.62
2024-02-28T20:36:29.730Z,63.61
2024-02-28T20:39:16.605Z,63.60
2024-02-28T20:42:05.900Z,63.59
2024-02-28T20:44:52.817Z,63.77
2024-02-28T20:47:39.793Z,63.49
2024-02-28T20:50:26.723Z,63.52
2024-02-28T20:53:14.394Z,63.30
2024-02-28T20:56:01.236Z,63.49
2024-02-28T20:58:50.482Z,63.16
2024-02-28T21:01:37.509Z,63.33
2024-02-28T21:04:25.066Z,63.30
2024-02-28T21:07:13.253Z,63.46
2024-02-28T21:10:00.193Z,63.57
2024-02-28T21:12:47.493Z,63.39
2024-02-28T21:15:34.620Z,63.23
2024-02-28T21:18:21.531Z,63.15
2024-02-28T21:21:08.386Z,63.04
2024-02-28T21:23:55.346Z,62.93
2024-02-28T21:26:42.237Z,63.58
2024-02-28T21:29:29.065Z,63.57
2024-02-28T21:32:16.433Z,63.02
2024-02-28T21:35:05.621Z,63.26
2024-02-28T21:37:52.974Z,62.98
2024-02-28T21:40:39.835Z,63.42
2024-02-28T21:43:26.807Z,63.21
2024-02-28T21:46:13.763Z,62.75
2024-02-28T21:49:06.324Z,62.97
2024-02-28T21:51:59.847Z,63.03
2024-02-28T21:54:47.928Z,63.13
2024-02-28T21:57:35.155Z,63.11
2024-02-28T22:00:22.368Z,63.12
2024-02-28T22:03:09.309Z,63.15
2024-02-28T22:05:56.261Z,63.20
2024-02-28T22:08:43.250Z,63.07
2024-02-28T22:11:31.359Z,63.31
2024-02-28T22:14:18.198Z,63.29
2024-02-28T22:17:07.950Z,62.85
2024-02-28T22:19:54.976Z,63.11
2024-02-28T22:22:41.872Z,63.00
2024-02-28T22:25:28.825Z,62.74
2024-02-28T22:28:15.673Z,63.19
2024-02-28T22:31:02.703Z,63.15
2024-02-28T22:33:49.572Z,63.20
2024-02-28T22:36:36.417Z,62.86
2024-02-28T22:39:23.285Z,62.84
2024-02-28T22:42:10.185Z,62.94
2024-02-28T22:44:57.010Z,63.25
2024-02-28T22:47:44.999Z,63.16
2024-02-28T22:50:31.991Z,62.89
2024-02-28T22:53:19.578Z,63.07
2024-02-28T22:56:06.506Z,63.07
2024-02-28T22:58:53.346Z,62.88
2024-02-28T23:01:40.442Z,63.02
2024-02-28T23:04:27.477Z,63.25
2024-02-28T23:07:14.339Z,62.80
2024-02-28T23:10:01.294Z,63.30
2024-02-28T23:12:55.863Z,62.99
2024-02-28T23:15:42.850Z,63.34
2024-02-28T23:18:29.696Z,62.79
2024-02-28T23:21:16.803Z,62.81
2024-02-28T23:24:06.469Z,62.83
2024-02-28T23:26:53.762Z,63.19
2024-02-28T23:29:40.615Z,62.85
2024-02-28T23:32:27.582Z,62.97
2024-02-28T23:35:14.995Z,63.00
2024-02-28T23:38:02.829Z,62.88
2024-02-28T23:40:49.706Z,63.09
2024-02-28T23:43:36.667Z,63.13
2024-02-28T23:46:23.508Z,63.25
2024-02-28T23:49:10.417Z,63.28
2024-02-28T23:51:57.335Z,62.88
2024-02-28T23:54:44.368Z,62.74
2024-02-28T23:57:31.413Z,63.01
